Airfield :
LOGIN :

Register | Disclaimer

   EN    FR    IT 

 










Legend :    VFR   Marginal VFR   IFR   Intensive IFR   Very Intensive IFR
Visi :
Ceiling :
>= 8 km
>= 3000ft
5 to 8 km
1000 to 3000 ft
1500m to 5 km
500 to 1000 ft
800 to 1500m
200 to 500 ft
< 800m
< 200 ft
Symbols :   Thunderstorms  Fog  Heavy snow  Heavy precipitations  Wind > 20 kt
SIGMETs :     Misc.  Thunderstorms  Icing  Turbulence  Mountain Waves  Volcanic Ashes






- Airport Elevation : 1267 ft
- IATA code : CUF


LIMZ - Cuneo Levaldigi

CURRENT METAR :
  • 200320Z AUTO 13004KT 9999 NCD 03/01 Q1008

EXPIRED METARs :
  • 200250Z AUTO 18003KT 140V270 9999 NCD 04/01 Q1007
  • 200220Z AUTO 23004KT 9999 NCD 04/02 Q1007
  • 200150Z AUTO 23004KT 9999 NCD 05/02 Q1008
  • 200120Z AUTO 24006KT 9999 NCD 05/03 Q1008
  • 200050Z AUTO 23006KT 9999 NCD 04/03 Q1008
  • 200020Z AUTO 18004KT 130V200 9999 NCD 04/02 Q1008
  • 192350Z AUTO 18002KT 9999 NCD 05/02 Q1008
  • 192320Z AUTO VRB02KT 9999 NCD 08/03 Q1008

TAF TAF LIMZ
Valid from the 20 at 00:00 until the 21 at 00:00 UTC


192300Z 2000/2024 23006KT CAVOK
BECMG 2008/2010 03013KT
BECMG 2015/2017 VRB05KT



MET'MAP, your aeronautical weather chart ! - Copyright ORBIFLY December 2007 - Disclaimer

ORBIFLY MET'MAP TEAM :

Programming & Development : Alexandra Zaïnal
Original concept : Baudouin d'Aumeries
Technical & hardware support : Manuel Goepfert
Assistance : Marc-Olivier Méhu




SOURCES & CREDITS :

   NOAA